sensor_id;sensor_type;location;lat;lon;timestamp;P1;durP1;ratioP1;P2;durP2;ratioP2
30127;SDS011;16942;53.196;6.592;2024-03-08T00:00:43;47.40;;;20.73;;
30127;SDS011;16942;53.196;6.592;2024-03-08T00:03:09;49.00;;;21.13;;
30127;SDS011;16942;53.196;6.592;2024-03-08T00:05:35;46.73;;;21.53;;
30127;SDS011;16942;53.196;6.592;2024-03-08T00:08:03;47.93;;;21.70;;
30127;SDS011;16942;53.196;6.592;2024-03-08T00:10:30;44.57;;;20.37;;
30127;SDS011;16942;53.196;6.592;2024-03-08T00:12:56;44.53;;;20.97;;
30127;SDS011;16942;53.196;6.592;2024-03-08T00:15:22;52.13;;;22.67;;
30127;SDS011;16942;53.196;6.592;2024-03-08T00:17:48;50.17;;;21.77;;
30127;SDS011;16942;53.196;6.592;2024-03-08T00:20:15;46.57;;;22.33;;
30127;SDS011;16942;53.196;6.592;2024-03-08T00:22:42;47.33;;;21.70;;
30127;SDS011;16942;53.196;6.592;2024-03-08T00:25:09;50.23;;;21.33;;
30127;SDS011;16942;53.196;6.592;2024-03-08T00:27:35;52.10;;;24.13;;
30127;SDS011;16942;53.196;6.592;2024-03-08T00:30:01;51.20;;;22.33;;
30127;SDS011;16942;53.196;6.592;2024-03-08T00:32:28;53.90;;;22.97;;
30127;SDS011;16942;53.196;6.592;2024-03-08T00:34:54;52.03;;;21.83;;
30127;SDS011;16942;53.196;6.592;2024-03-08T00:37:20;47.23;;;21.00;;
30127;SDS011;16942;53.196;6.592;2024-03-08T00:39:55;50.23;;;21.10;;
30127;SDS011;16942;53.196;6.592;2024-03-08T00:42:21;48.90;;;21.37;;
30127;SDS011;16942;53.196;6.592;2024-03-08T00:44:49;53.60;;;22.23;;
30127;SDS011;16942;53.196;6.592;2024-03-08T00:47:16;51.17;;;22.87;;
30127;SDS011;16942;53.196;6.592;2024-03-08T00:49:42;50.83;;;22.23;;
30127;SDS011;16942;53.196;6.592;2024-03-08T00:52:08;54.83;;;22.47;;
30127;SDS011;16942;53.196;6.592;2024-03-08T00:54:34;55.87;;;22.07;;
30127;SDS011;16942;53.196;6.592;2024-03-08T00:57:03;49.47;;;20.77;;
30127;SDS011;16942;53.196;6.592;2024-03-08T00:59:31;48.47;;;22.27;;
30127;SDS011;16942;53.196;6.592;2024-03-08T01:01:58;55.13;;;23.10;;
30127;SDS011;16942;53.196;6.592;2024-03-08T01:04:25;51.17;;;21.60;;
30127;SDS011;16942;53.196;6.592;2024-03-08T01:06:54;49.93;;;21.50;;
30127;SDS011;16942;53.196;6.592;2024-03-08T01:09:21;50.20;;;22.27;;
30127;SDS011;16942;53.196;6.592;2024-03-08T01:11:47;51.13;;;22.53;;
30127;SDS011;16942;53.196;6.592;2024-03-08T01:14:14;50.57;;;21.77;;
30127;SDS011;16942;53.196;6.592;2024-03-08T01:16:40;54.60;;;22.80;;
30127;SDS011;16942;53.196;6.592;2024-03-08T01:19:06;54.27;;;22.00;;
30127;SDS011;16942;53.196;6.592;2024-03-08T01:21:32;51.73;;;22.47;;
30127;SDS011;16942;53.196;6.592;2024-03-08T01:23:59;53.03;;;21.57;;
30127;SDS011;16942;53.196;6.592;2024-03-08T01:26:25;51.50;;;23.40;;
30127;SDS011;16942;53.196;6.592;2024-03-08T01:28:51;50.10;;;22.23;;
30127;SDS011;16942;53.196;6.592;2024-03-08T01:31:17;55.03;;;22.53;;
30127;SDS011;16942;53.196;6.592;2024-03-08T01:33:43;55.63;;;21.67;;
30127;SDS011;16942;53.196;6.592;2024-03-08T01:36:09;51.57;;;21.97;;
30127;SDS011;16942;53.196;6.592;2024-03-08T01:38:35;52.60;;;22.13;;
30127;SDS011;16942;53.196;6.592;2024-03-08T01:41:01;52.10;;;21.93;;
30127;SDS011;16942;53.196;6.592;2024-03-08T01:43:28;53.27;;;22.73;;
30127;SDS011;16942;53.196;6.592;2024-03-08T01:45:55;56.37;;;22.80;;
30127;SDS011;16942;53.196;6.592;2024-03-08T01:48:26;49.40;;;21.87;;
30127;SDS011;16942;53.196;6.592;2024-03-08T01:50:53;48.17;;;22.53;;
30127;SDS011;16942;53.196;6.592;2024-03-08T01:53:19;48.97;;;22.47;;
30127;SDS011;16942;53.196;6.592;2024-03-08T01:55:49;46.07;;;21.87;;
30127;SDS011;16942;53.196;6.592;2024-03-08T01:58:15;50.73;;;21.87;;
30127;SDS011;16942;53.196;6.592;2024-03-08T02:00:42;62.17;;;23.33;;
30127;SDS011;16942;53.196;6.592;2024-03-08T02:03:09;51.87;;;22.67;;
30127;SDS011;16942;53.196;6.592;2024-03-08T02:05:36;54.37;;;21.73;;
30127;SDS011;16942;53.196;6.592;2024-03-08T02:08:03;49.67;;;21.97;;
30127;SDS011;16942;53.196;6.592;2024-03-08T02:10:32;51.03;;;22.53;;
30127;SDS011;16942;53.196;6.592;2024-03-08T02:12:58;49.13;;;22.20;;
30127;SDS011;16942;53.196;6.592;2024-03-08T02:15:24;52.23;;;21.03;;
30127;SDS011;16942;53.196;6.592;2024-03-08T02:17:51;48.17;;;21.93;;
30127;SDS011;16942;53.196;6.592;2024-03-08T02:20:18;52.33;;;22.27;;
30127;SDS011;16942;53.196;6.592;2024-03-08T02:22:45;47.10;;;21.17;;
30127;SDS011;16942;53.196;6.592;2024-03-08T02:25:11;54.10;;;23.07;;
30127;SDS011;16942;53.196;6.592;2024-03-08T02:27:37;49.47;;;22.17;;
30127;SDS011;16942;53.196;6.592;2024-03-08T02:30:03;48.13;;;20.27;;
30127;SDS011;16942;53.196;6.592;2024-03-08T02:32:30;55.07;;;23.07;;
30127;SDS011;16942;53.196;6.592;2024-03-08T02:34:57;46.97;;;20.73;;
30127;SDS011;16942;53.196;6.592;2024-03-08T02:37:27;51.33;;;20.43;;
30127;SDS011;16942;53.196;6.592;2024-03-08T02:39:53;54.10;;;21.93;;
30127;SDS011;16942;53.196;6.592;2024-03-08T02:42:20;49.97;;;21.20;;
30127;SDS011;16942;53.196;6.592;2024-03-08T02:44:46;45.13;;;19.47;;
30127;SDS011;16942;53.196;6.592;2024-03-08T02:47:12;55.00;;;22.03;;
30127;SDS011;16942;53.196;6.592;2024-03-08T02:49:38;55.07;;;22.30;;
30127;SDS011;16942;53.196;6.592;2024-03-08T02:52:04;55.43;;;21.87;;
30127;SDS011;16942;53.196;6.592;2024-03-08T02:54:30;55.73;;;22.83;;
30127;SDS011;16942;53.196;6.592;2024-03-08T02:56:56;56.50;;;22.03;;
30127;SDS011;16942;53.196;6.592;2024-03-08T02:59:22;48.83;;;20.83;;
30127;SDS011;16942;53.196;6.592;2024-03-08T03:01:48;44.03;;;20.10;;
30127;SDS011;16942;53.196;6.592;2024-03-08T03:04:15;43.33;;;18.87;;
30127;SDS011;16942;53.196;6.592;2024-03-08T03:06:41;52.87;;;21.67;;
30127;SDS011;16942;53.196;6.592;2024-03-08T03:09:07;52.87;;;21.07;;
30127;SDS011;16942;53.196;6.592;2024-03-08T03:11:35;47.17;;;20.87;;
30127;SDS011;16942;53.196;6.592;2024-03-08T03:14:02;45.00;;;19.87;;
30127;SDS011;16942;53.196;6.592;2024-03-08T03:16:29;46.60;;;21.30;;
30127;SDS011;16942;53.196;6.592;2024-03-08T03:18:55;47.40;;;20.80;;
30127;SDS011;16942;53.196;6.592;2024-03-08T03:21:22;46.27;;;20.93;;
30127;SDS011;16942;53.196;6.592;2024-03-08T03:23:48;47.33;;;19.77;;
30127;SDS011;16942;53.196;6.592;2024-03-08T03:26:14;46.13;;;20.37;;
30127;SDS011;16942;53.196;6.592;2024-03-08T03:28:42;44.33;;;20.73;;
30127;SDS011;16942;53.196;6.592;2024-03-08T03:31:08;54.77;;;21.90;;
30127;SDS011;16942;53.196;6.592;2024-03-08T03:33:39;46.33;;;20.63;;
30127;SDS011;16942;53.196;6.592;2024-03-08T03:36:06;46.90;;;21.03;;
30127;SDS011;16942;53.196;6.592;2024-03-08T03:38:34;45.73;;;19.20;;
30127;SDS011;16942;53.196;6.592;2024-03-08T03:41:00;43.20;;;19.30;;
30127;SDS011;16942;53.196;6.592;2024-03-08T03:43:31;44.70;;;20.50;;
30127;SDS011;16942;53.196;6.592;2024-03-08T03:45:57;46.50;;;20.27;;
30127;SDS011;16942;53.196;6.592;2024-03-08T03:48:23;56.80;;;21.33;;
30127;SDS011;16942;53.196;6.592;2024-03-08T03:50:49;46.97;;;21.37;;
30127;SDS011;16942;53.196;6.592;2024-03-08T03:53:15;40.70;;;18.17;;
30127;SDS011;16942;53.196;6.592;2024-03-08T03:55:41;47.70;;;20.33;;
30127;SDS011;16942;53.196;6.592;2024-03-08T03:58:10;43.33;;;19.70;;
30127;SDS011;16942;53.196;6.592;2024-03-08T04:00:36;42.77;;;18.40;;
30127;SDS011;16942;53.196;6.592;2024-03-08T04:03:02;41.33;;;18.30;;
30127;SDS011;16942;53.196;6.592;2024-03-08T04:05:28;42.97;;;19.60;;
30127;SDS011;16942;53.196;6.592;2024-03-08T04:07:54;49.20;;;20.03;;
30127;SDS011;16942;53.196;6.592;2024-03-08T04:10:20;47.47;;;19.37;;
30127;SDS011;16942;53.196;6.592;2024-03-08T04:12:46;44.60;;;19.63;;
30127;SDS011;16942;53.196;6.592;2024-03-08T04:15:13;44.93;;;19.97;;
30127;SDS011;16942;53.196;6.592;2024-03-08T04:17:40;40.63;;;18.53;;
30127;SDS011;16942;53.196;6.592;2024-03-08T04:20:06;42.10;;;19.37;;
30127;SDS011;16942;53.196;6.592;2024-03-08T04:22:36;43.80;;;19.30;;
30127;SDS011;16942;53.196;6.592;2024-03-08T04:25:02;43.10;;;19.33;;
30127;SDS011;16942;53.196;6.592;2024-03-08T04:27:28;46.83;;;19.90;;
30127;SDS011;16942;53.196;6.592;2024-03-08T04:29:55;46.30;;;19.30;;
30127;SDS011;16942;53.196;6.592;2024-03-08T04:32:22;47.13;;;19.23;;
30127;SDS011;16942;53.196;6.592;2024-03-08T04:34:48;45.27;;;18.73;;
30127;SDS011;16942;53.196;6.592;2024-03-08T04:37:14;42.53;;;18.20;;
30127;SDS011;16942;53.196;6.592;2024-03-08T04:39:43;44.03;;;19.23;;
30127;SDS011;16942;53.196;6.592;2024-03-08T04:42:09;40.27;;;18.07;;
30127;SDS011;16942;53.196;6.592;2024-03-08T04:44:36;45.23;;;18.73;;
30127;SDS011;16942;53.196;6.592;2024-03-08T04:47:05;46.63;;;19.40;;
30127;SDS011;16942;53.196;6.592;2024-03-08T04:49:32;47.00;;;19.50;;
30127;SDS011;16942;53.196;6.592;2024-03-08T04:52:00;49.57;;;19.83;;
30127;SDS011;16942;53.196;6.592;2024-03-08T04:54:27;42.23;;;19.83;;
30127;SDS011;16942;53.196;6.592;2024-03-08T04:56:54;42.60;;;19.10;;
30127;SDS011;16942;53.196;6.592;2024-03-08T04:59:20;41.97;;;17.60;;
30127;SDS011;16942;53.196;6.592;2024-03-08T05:01:46;46.27;;;19.90;;
30127;SDS011;16942;53.196;6.592;2024-03-08T05:04:12;44.10;;;18.03;;
30127;SDS011;16942;53.196;6.592;2024-03-08T05:06:38;42.23;;;18.57;;
30127;SDS011;16942;53.196;6.592;2024-03-08T05:09:04;42.70;;;19.20;;
30127;SDS011;16942;53.196;6.592;2024-03-08T05:11:50;38.77;;;18.17;;
30127;SDS011;16942;53.196;6.592;2024-03-08T05:14:16;45.37;;;19.27;;
30127;SDS011;16942;53.196;6.592;2024-03-08T05:16:45;41.33;;;18.90;;
30127;SDS011;16942;53.196;6.592;2024-03-08T05:19:15;47.97;;;19.40;;
30127;SDS011;16942;53.196;6.592;2024-03-08T05:21:42;43.73;;;19.20;;
30127;SDS011;16942;53.196;6.592;2024-03-08T05:24:09;44.93;;;18.97;;
30127;SDS011;16942;53.196;6.592;2024-03-08T05:26:35;42.10;;;17.13;;
30127;SDS011;16942;53.196;6.592;2024-03-08T05:29:02;41.87;;;18.03;;
30127;SDS011;16942;53.196;6.592;2024-03-08T05:31:28;37.83;;;18.17;;
30127;SDS011;16942;53.196;6.592;2024-03-08T05:33:56;42.83;;;18.87;;
30127;SDS011;16942;53.196;6.592;2024-03-08T05:36:22;39.77;;;17.00;;
30127;SDS011;16942;53.196;6.592;2024-03-08T05:38:48;37.53;;;16.43;;
30127;SDS011;16942;53.196;6.592;2024-03-08T05:41:15;43.37;;;18.37;;
30127;SDS011;16942;53.196;6.592;2024-03-08T05:43:42;39.53;;;18.63;;
30127;SDS011;16942;53.196;6.592;2024-03-08T05:46:08;37.53;;;17.13;;
30127;SDS011;16942;53.196;6.592;2024-03-08T05:48:36;46.03;;;16.80;;
30127;SDS011;16942;53.196;6.592;2024-03-08T05:51:02;44.90;;;19.37;;
30127;SDS011;16942;53.196;6.592;2024-03-08T05:53:29;43.57;;;18.37;;
30127;SDS011;16942;53.196;6.592;2024-03-08T05:55:58;42.33;;;17.57;;
30127;SDS011;16942;53.196;6.592;2024-03-08T05:58:27;38.47;;;17.03;;
30127;SDS011;16942;53.196;6.592;2024-03-08T06:00:55;38.93;;;17.40;;
30127;SDS011;16942;53.196;6.592;2024-03-08T06:03:21;42.87;;;18.03;;
30127;SDS011;16942;53.196;6.592;2024-03-08T06:05:48;45.77;;;18.00;;
30127;SDS011;16942;53.196;6.592;2024-03-08T06:08:14;39.63;;;18.10;;
30127;SDS011;16942;53.196;6.592;2024-03-08T06:10:41;39.70;;;18.00;;
30127;SDS011;16942;53.196;6.592;2024-03-08T06:13:07;42.13;;;17.53;;
30127;SDS011;16942;53.196;6.592;2024-03-08T06:15:33;48.87;;;18.67;;
30127;SDS011;16942;53.196;6.592;2024-03-08T06:17:59;39.47;;;18.20;;
30127;SDS011;16942;53.196;6.592;2024-03-08T06:20:26;39.30;;;17.50;;
30127;SDS011;16942;53.196;6.592;2024-03-08T06:22:52;36.43;;;16.43;;
30127;SDS011;16942;53.196;6.592;2024-03-08T06:25:18;41.90;;;17.67;;
30127;SDS011;16942;53.196;6.592;2024-03-08T06:27:45;39.70;;;18.00;;
30127;SDS011;16942;53.196;6.592;2024-03-08T06:30:11;41.93;;;17.50;;
30127;SDS011;16942;53.196;6.592;2024-03-08T06:32:38;54.83;;;19.07;;
30127;SDS011;16942;53.196;6.592;2024-03-08T06:35:04;45.33;;;17.90;;
30127;SDS011;16942;53.196;6.592;2024-03-08T06:37:35;41.80;;;16.80;;
30127;SDS011;16942;53.196;6.592;2024-03-08T06:40:01;41.03;;;17.43;;
30127;SDS011;16942;53.196;6.592;2024-03-08T06:42:33;40.17;;;17.60;;
30127;SDS011;16942;53.196;6.592;2024-03-08T06:45:00;44.70;;;17.70;;
30127;SDS011;16942;53.196;6.592;2024-03-08T06:47:30;45.13;;;18.20;;
30127;SDS011;16942;53.196;6.592;2024-03-08T06:49:56;38.90;;;18.07;;
30127;SDS011;16942;53.196;6.592;2024-03-08T06:52:22;41.73;;;18.00;;
30127;SDS011;16942;53.196;6.592;2024-03-08T06:54:48;36.30;;;16.17;;
30127;SDS011;16942;53.196;6.592;2024-03-08T06:57:15;33.40;;;17.03;;
30127;SDS011;16942;53.196;6.592;2024-03-08T06:59:41;34.83;;;16.00;;
30127;SDS011;16942;53.196;6.592;2024-03-08T07:02:08;43.43;;;17.77;;
30127;SDS011;16942;53.196;6.592;2024-03-08T07:04:34;41.20;;;17.07;;
30127;SDS011;16942;53.196;6.592;2024-03-08T07:07:06;44.00;;;19.37;;
30127;SDS011;16942;53.196;6.592;2024-03-08T07:09:35;44.03;;;18.67;;
30127;SDS011;16942;53.196;6.592;2024-03-08T07:12:01;48.27;;;18.03;;
30127;SDS011;16942;53.196;6.592;2024-03-08T07:14:27;39.10;;;16.13;;
30127;SDS011;16942;53.196;6.592;2024-03-08T07:16:53;37.67;;;16.43;;
30127;SDS011;16942;53.196;6.592;2024-03-08T07:19:20;38.70;;;17.00;;
30127;SDS011;16942;53.196;6.592;2024-03-08T07:21:46;40.63;;;17.73;;
30127;SDS011;16942;53.196;6.592;2024-03-08T07:24:13;43.07;;;17.13;;
30127;SDS011;16942;53.196;6.592;2024-03-08T07:26:43;43.83;;;17.00;;
30127;SDS011;16942;53.196;6.592;2024-03-08T07:29:09;35.93;;;16.50;;
30127;SDS011;16942;53.196;6.592;2024-03-08T07:31:35;44.13;;;18.27;;
30127;SDS011;16942;53.196;6.592;2024-03-08T07:34:07;41.23;;;17.30;;
30127;SDS011;16942;53.196;6.592;2024-03-08T07:36:33;43.60;;;18.30;;
30127;SDS011;16942;53.196;6.592;2024-03-08T07:39:02;37.83;;;17.87;;
30127;SDS011;16942;53.196;6.592;2024-03-08T07:41:30;54.43;;;17.70;;
30127;SDS011;16942;53.196;6.592;2024-03-08T07:43:57;41.40;;;18.27;;
30127;SDS011;16942;53.196;6.592;2024-03-08T07:46:23;35.50;;;16.70;;
30127;SDS011;16942;53.196;6.592;2024-03-08T07:48:49;40.97;;;17.53;;
30127;SDS011;16942;53.196;6.592;2024-03-08T07:51:18;38.97;;;17.50;;
30127;SDS011;16942;53.196;6.592;2024-03-08T07:53:44;38.20;;;16.17;;
30127;SDS011;16942;53.196;6.592;2024-03-08T07:56:10;39.33;;;17.37;;
30127;SDS011;16942;53.196;6.592;2024-03-08T07:58:38;41.83;;;18.07;;
30127;SDS011;16942;53.196;6.592;2024-03-08T08:01:05;34.90;;;17.67;;
30127;SDS011;16942;53.196;6.592;2024-03-08T08:03:31;39.73;;;17.77;;
30127;SDS011;16942;53.196;6.592;2024-03-08T08:05:58;38.57;;;17.10;;
30127;SDS011;16942;53.196;6.592;2024-03-08T08:08:24;36.90;;;16.93;;
30127;SDS011;16942;53.196;6.592;2024-03-08T08:10:51;33.63;;;16.37;;
30127;SDS011;16942;53.196;6.592;2024-03-08T08:13:17;40.23;;;17.53;;
30127;SDS011;16942;53.196;6.592;2024-03-08T08:15:43;40.87;;;16.90;;
30127;SDS011;16942;53.196;6.592;2024-03-08T08:18:10;47.20;;;19.57;;
30127;SDS011;16942;53.196;6.592;2024-03-08T08:20:36;37.77;;;17.60;;
30127;SDS011;16942;53.196;6.592;2024-03-08T08:23:02;42.80;;;17.13;;
30127;SDS011;16942;53.196;6.592;2024-03-08T08:25:28;45.47;;;18.47;;
30127;SDS011;16942;53.196;6.592;2024-03-08T08:27:55;38.67;;;18.07;;
30127;SDS011;16942;53.196;6.592;2024-03-08T08:30:21;36.87;;;17.00;;
30127;SDS011;16942;53.196;6.592;2024-03-08T08:32:47;40.60;;;18.07;;
30127;SDS011;16942;53.196;6.592;2024-03-08T08:35:13;37.67;;;16.87;;
30127;SDS011;16942;53.196;6.592;2024-03-08T08:37:39;37.60;;;17.47;;
30127;SDS011;16942;53.196;6.592;2024-03-08T08:40:06;40.80;;;18.07;;
30127;SDS011;16942;53.196;6.592;2024-03-08T08:42:39;43.57;;;18.77;;
30127;SDS011;16942;53.196;6.592;2024-03-08T08:45:05;40.43;;;18.93;;
30127;SDS011;16942;53.196;6.592;2024-03-08T08:47:35;42.40;;;18.50;;
30127;SDS011;16942;53.196;6.592;2024-03-08T08:50:02;40.47;;;17.90;;
30127;SDS011;16942;53.196;6.592;2024-03-08T08:52:29;39.70;;;17.97;;
30127;SDS011;16942;53.196;6.592;2024-03-08T08:54:55;37.93;;;18.50;;
30127;SDS011;16942;53.196;6.592;2024-03-08T08:57:22;39.37;;;18.03;;
30127;SDS011;16942;53.196;6.592;2024-03-08T08:59:48;38.07;;;17.97;;
30127;SDS011;16942;53.196;6.592;2024-03-08T09:02:15;36.73;;;17.80;;
30127;SDS011;16942;53.196;6.592;2024-03-08T09:04:42;36.90;;;18.83;;
30127;SDS011;16942;53.196;6.592;2024-03-08T09:07:09;36.83;;;18.37;;
30127;SDS011;16942;53.196;6.592;2024-03-08T09:09:35;37.47;;;18.57;;
30127;SDS011;16942;53.196;6.592;2024-03-08T09:12:01;33.67;;;17.47;;
30127;SDS011;16942;53.196;6.592;2024-03-08T09:14:27;30.70;;;16.93;;
30127;SDS011;16942;53.196;6.592;2024-03-08T09:16:54;34.27;;;17.50;;
30127;SDS011;16942;53.196;6.592;2024-03-08T09:19:20;34.97;;;18.10;;
30127;SDS011;16942;53.196;6.592;2024-03-08T09:21:48;35.73;;;17.77;;
30127;SDS011;16942;53.196;6.592;2024-03-08T09:24:14;34.53;;;16.60;;
30127;SDS011;16942;53.196;6.592;2024-03-08T09:26:41;37.80;;;18.07;;
30127;SDS011;16942;53.196;6.592;2024-03-08T09:29:08;34.30;;;18.03;;
30127;SDS011;16942;53.196;6.592;2024-03-08T09:31:35;30.80;;;16.70;;
30127;SDS011;16942;53.196;6.592;2024-03-08T09:34:03;32.43;;;16.97;;
30127;SDS011;16942;53.196;6.592;2024-03-08T09:36:29;42.10;;;19.73;;
30127;SDS011;16942;53.196;6.592;2024-03-08T09:38:57;34.70;;;18.63;;
30127;SDS011;16942;53.196;6.592;2024-03-08T09:41:23;39.13;;;18.03;;
30127;SDS011;16942;53.196;6.592;2024-03-08T09:43:49;34.73;;;18.23;;
30127;SDS011;16942;53.196;6.592;2024-03-08T09:46:15;34.43;;;17.93;;
30127;SDS011;16942;53.196;6.592;2024-03-08T09:48:42;36.27;;;19.53;;
30127;SDS011;16942;53.196;6.592;2024-03-08T09:51:08;40.43;;;19.50;;
30127;SDS011;16942;53.196;6.592;2024-03-08T09:53:38;38.27;;;18.33;;
30127;SDS011;16942;53.196;6.592;2024-03-08T09:56:05;34.73;;;18.10;;
30127;SDS011;16942;53.196;6.592;2024-03-08T09:58:32;35.70;;;17.67;;
30127;SDS011;16942;53.196;6.592;2024-03-08T10:00:58;38.90;;;19.87;;
30127;SDS011;16942;53.196;6.592;2024-03-08T10:03:26;36.53;;;18.90;;
30127;SDS011;16942;53.196;6.592;2024-03-08T10:05:53;37.30;;;18.77;;
30127;SDS011;16942;53.196;6.592;2024-03-08T10:08:21;41.37;;;18.50;;
30127;SDS011;16942;53.196;6.592;2024-03-08T10:10:47;37.30;;;18.40;;
30127;SDS011;16942;53.196;6.592;2024-03-08T10:13:14;36.13;;;19.40;;
30127;SDS011;16942;53.196;6.592;2024-03-08T10:15:42;37.57;;;18.63;;
30127;SDS011;16942;53.196;6.592;2024-03-08T10:18:08;35.33;;;18.33;;
30127;SDS011;16942;53.196;6.592;2024-03-08T10:20:35;38.47;;;19.90;;
30127;SDS011;16942;53.196;6.592;2024-03-08T10:23:02;33.73;;;17.97;;
30127;SDS011;16942;53.196;6.592;2024-03-08T10:25:29;36.90;;;18.20;;
30127;SDS011;16942;53.196;6.592;2024-03-08T10:27:55;38.63;;;19.97;;
30127;SDS011;16942;53.196;6.592;2024-03-08T10:30:22;40.77;;;19.17;;
30127;SDS011;16942;53.196;6.592;2024-03-08T10:32:48;37.90;;;18.80;;
30127;SDS011;16942;53.196;6.592;2024-03-08T10:35:14;38.10;;;18.97;;
30127;SDS011;16942;53.196;6.592;2024-03-08T10:37:45;38.90;;;18.23;;
30127;SDS011;16942;53.196;6.592;2024-03-08T10:40:18;40.67;;;18.20;;
30127;SDS011;16942;53.196;6.592;2024-03-08T10:42:51;39.47;;;18.27;;
30127;SDS011;16942;53.196;6.592;2024-03-08T10:47:50;40.63;;;18.70;;
30127;SDS011;16942;53.196;6.592;2024-03-08T10:50:23;37.93;;;19.67;;
30127;SDS011;16942;53.196;6.592;2024-03-08T10:52:50;38.40;;;18.37;;
30127;SDS011;16942;53.196;6.592;2024-03-08T10:55:18;37.80;;;19.47;;
30127;SDS011;16942;53.196;6.592;2024-03-08T10:57:45;35.07;;;18.07;;
30127;SDS011;16942;53.196;6.592;2024-03-08T11:00:13;42.27;;;19.83;;
30127;SDS011;16942;53.196;6.592;2024-03-08T11:02:43;33.37;;;18.87;;
30127;SDS011;16942;53.196;6.592;2024-03-08T11:08:19;39.37;;;19.10;;
30127;SDS011;16942;53.196;6.592;2024-03-08T11:10:53;36.27;;;19.00;;
30127;SDS011;16942;53.196;6.592;2024-03-08T11:13:33;40.70;;;20.43;;
30127;SDS011;16942;53.196;6.592;2024-03-08T11:24:00;37.27;;;19.67;;
30127;SDS011;16942;53.196;6.592;2024-03-08T11:26:27;43.10;;;19.90;;
30127;SDS011;16942;53.196;6.592;2024-03-08T11:29:22;41.70;;;20.70;;
30127;SDS011;16942;53.196;6.592;2024-03-08T11:31:42;34.57;;;19.27;;
30127;SDS011;16942;53.196;6.592;2024-03-08T11:34:16;35.00;;;19.50;;
30127;SDS011;16942;53.196;6.592;2024-03-08T11:36:44;40.03;;;20.63;;
30127;SDS011;16942;53.196;6.592;2024-03-08T11:39:13;35.40;;;18.43;;
30127;SDS011;16942;53.196;6.592;2024-03-08T11:41:40;36.67;;;20.37;;
30127;SDS011;16942;53.196;6.592;2024-03-08T11:44:10;36.60;;;18.77;;
30127;SDS011;16942;53.196;6.592;2024-03-08T11:46:41;38.73;;;20.03;;
30127;SDS011;16942;53.196;6.592;2024-03-08T11:49:11;34.93;;;19.13;;
30127;SDS011;16942;53.196;6.592;2024-03-08T11:51:38;36.67;;;19.80;;
30127;SDS011;16942;53.196;6.592;2024-03-08T11:54:04;37.13;;;18.97;;
30127;SDS011;16942;53.196;6.592;2024-03-08T11:56:31;32.33;;;18.57;;
30127;SDS011;16942;53.196;6.592;2024-03-08T11:58:57;33.77;;;19.93;;
30127;SDS011;16942;53.196;6.592;2024-03-08T12:01:23;33.73;;;18.37;;
30127;SDS011;16942;53.196;6.592;2024-03-08T12:03:53;32.50;;;19.10;;
30127;SDS011;16942;53.196;6.592;2024-03-08T12:06:24;27.20;;;17.47;;
30127;SDS011;16942;53.196;6.592;2024-03-08T12:08:50;34.33;;;18.37;;
30127;SDS011;16942;53.196;6.592;2024-03-08T12:11:17;37.00;;;19.70;;
30127;SDS011;16942;53.196;6.592;2024-03-08T12:13:48;29.43;;;18.17;;
30127;SDS011;16942;53.196;6.592;2024-03-08T12:16:16;31.70;;;18.43;;
30127;SDS011;16942;53.196;6.592;2024-03-08T12:18:50;35.43;;;19.47;;
30127;SDS011;16942;53.196;6.592;2024-03-08T12:21:17;27.10;;;17.90;;
30127;SDS011;16942;53.196;6.592;2024-03-08T12:23:45;34.17;;;18.67;;
30127;SDS011;16942;53.196;6.592;2024-03-08T12:26:24;30.70;;;19.55;;
30127;SDS011;16942;53.196;6.592;2024-03-08T12:28:51;28.70;;;18.50;;
30127;SDS011;16942;53.196;6.592;2024-03-08T12:31:18;31.02;;;19.38;;
30127;SDS011;16942;53.196;6.592;2024-03-08T12:33:51;26.55;;;17.67;;
30127;SDS011;16942;53.196;6.592;2024-03-08T12:36:17;26.30;;;19.30;;
30127;SDS011;16942;53.196;6.592;2024-03-08T12:38:45;29.52;;;19.98;;
30127;SDS011;16942;53.196;6.592;2024-03-08T12:41:17;25.23;;;18.02;;
30127;SDS011;16942;53.196;6.592;2024-03-08T12:43:47;29.23;;;19.00;;
30127;SDS011;16942;53.196;6.592;2024-03-08T12:46:19;29.23;;;18.52;;
30127;SDS011;16942;53.196;6.592;2024-03-08T12:48:46;26.90;;;17.77;;
30127;SDS011;16942;53.196;6.592;2024-03-08T12:51:13;23.83;;;16.98;;
30127;SDS011;16942;53.196;6.592;2024-03-08T12:53:39;28.88;;;19.50;;
30127;SDS011;16942;53.196;6.592;2024-03-08T12:56:06;29.55;;;18.55;;
30127;SDS011;16942;53.196;6.592;2024-03-08T12:58:34;27.65;;;18.60;;
30127;SDS011;16942;53.196;6.592;2024-03-08T13:01:01;27.60;;;18.15;;
30127;SDS011;16942;53.196;6.592;2024-03-08T13:03:29;29.63;;;18.85;;
30127;SDS011;16942;53.196;6.592;2024-03-08T13:05:56;22.63;;;17.27;;
30127;SDS011;16942;53.196;6.592;2024-03-08T13:08:22;25.95;;;18.60;;
30127;SDS011;16942;53.196;6.592;2024-03-08T13:10:52;30.17;;;19.50;;
30127;SDS011;16942;53.196;6.592;2024-03-08T13:13:19;21.65;;;17.50;;
30127;SDS011;16942;53.196;6.592;2024-03-08T13:15:45;22.58;;;18.00;;
30127;SDS011;16942;53.196;6.592;2024-03-08T13:18:11;25.23;;;18.20;;
30127;SDS011;16942;53.196;6.592;2024-03-08T13:20:37;23.65;;;17.75;;
30127;SDS011;16942;53.196;6.592;2024-03-08T13:23:03;24.15;;;18.35;;
30127;SDS011;16942;53.196;6.592;2024-03-08T13:25:30;25.75;;;18.33;;
30127;SDS011;16942;53.196;6.592;2024-03-08T13:27:56;25.88;;;19.00;;
30127;SDS011;16942;53.196;6.592;2024-03-08T13:30:24;23.02;;;18.23;;
30127;SDS011;16942;53.196;6.592;2024-03-08T13:32:54;25.35;;;18.48;;
30127;SDS011;16942;53.196;6.592;2024-03-08T13:35:20;23.05;;;18.33;;
30127;SDS011;16942;53.196;6.592;2024-03-08T13:37:49;25.23;;;18.02;;
30127;SDS011;16942;53.196;6.592;2024-03-08T13:40:17;26.00;;;17.65;;
30127;SDS011;16942;53.196;6.592;2024-03-08T13:42:46;25.88;;;17.85;;
30127;SDS011;16942;53.196;6.592;2024-03-08T13:45:14;24.98;;;19.73;;
30127;SDS011;16942;53.196;6.592;2024-03-08T13:47:43;19.50;;;16.75;;
30127;SDS011;16942;53.196;6.592;2024-03-08T13:50:09;22.52;;;16.80;;
30127;SDS011;16942;53.196;6.592;2024-03-08T13:52:43;24.70;;;17.63;;
30127;SDS011;16942;53.196;6.592;2024-03-08T13:55:09;21.95;;;17.65;;
30127;SDS011;16942;53.196;6.592;2024-03-08T13:57:37;23.45;;;17.88;;
30127;SDS011;16942;53.196;6.592;2024-03-08T14:00:03;28.60;;;18.75;;
30127;SDS011;16942;53.196;6.592;2024-03-08T14:02:32;24.55;;;16.80;;
30127;SDS011;16942;53.196;6.592;2024-03-08T14:04:58;25.15;;;18.83;;
30127;SDS011;16942;53.196;6.592;2024-03-08T14:07:26;22.27;;;16.98;;
30127;SDS011;16942;53.196;6.592;2024-03-08T14:09:54;21.52;;;17.65;;
30127;SDS011;16942;53.196;6.592;2024-03-08T14:12:20;23.60;;;16.63;;
30127;SDS011;16942;53.196;6.592;2024-03-08T14:14:46;23.33;;;16.85;;
30127;SDS011;16942;53.196;6.592;2024-03-08T14:17:12;25.40;;;18.00;;
30127;SDS011;16942;53.196;6.592;2024-03-08T14:19:42;21.23;;;16.58;;
30127;SDS011;16942;53.196;6.592;2024-03-08T14:22:08;24.17;;;18.92;;
30127;SDS011;16942;53.196;6.592;2024-03-08T14:24:39;23.75;;;17.63;;
30127;SDS011;16942;53.196;6.592;2024-03-08T14:27:05;24.40;;;17.67;;
30127;SDS011;16942;53.196;6.592;2024-03-08T14:29:33;27.55;;;16.83;;
30127;SDS011;16942;53.196;6.592;2024-03-08T14:31:59;24.30;;;16.25;;
30127;SDS011;16942;53.196;6.592;2024-03-08T14:34:25;22.77;;;17.38;;